sensor_id;sensor_type;location;lat;lon;timestamp;P1;durP1;ratioP1;P2;durP2;ratioP2
16073;SDS011;8141;52.664;5.074;2023-07-16T00:01:37;7.57;;;3.00;;
16073;SDS011;8141;52.664;5.074;2023-07-16T00:04:03;5.93;;;2.93;;
16073;SDS011;8141;52.664;5.074;2023-07-16T00:06:29;4.93;;;2.70;;
16073;SDS011;8141;52.664;5.074;2023-07-16T00:08:54;5.13;;;2.80;;
16073;SDS011;8141;52.664;5.074;2023-07-16T00:11:20;4.43;;;2.63;;
16073;SDS011;8141;52.664;5.074;2023-07-16T00:13:46;8.70;;;2.97;;
16073;SDS011;8141;52.664;5.074;2023-07-16T00:16:12;5.50;;;3.00;;
16073;SDS011;8141;52.664;5.074;2023-07-16T00:18:39;6.20;;;2.77;;
16073;SDS011;8141;52.664;5.074;2023-07-16T00:21:07;6.53;;;2.80;;
16073;SDS011;8141;52.664;5.074;2023-07-16T00:23:33;5.17;;;2.63;;
16073;SDS011;8141;52.664;5.074;2023-07-16T00:25:58;3.83;;;2.27;;
16073;SDS011;8141;52.664;5.074;2023-07-16T00:28:24;4.10;;;2.80;;
16073;SDS011;8141;52.664;5.074;2023-07-16T00:30:50;4.07;;;2.40;;
16073;SDS011;8141;52.664;5.074;2023-07-16T00:33:15;6.67;;;2.57;;
16073;SDS011;8141;52.664;5.074;2023-07-16T00:35:47;4.83;;;2.50;;
16073;SDS011;8141;52.664;5.074;2023-07-16T00:38:14;7.23;;;2.90;;
16073;SDS011;8141;52.664;5.074;2023-07-16T00:40:42;4.80;;;2.40;;
16073;SDS011;8141;52.664;5.074;2023-07-16T00:43:08;9.93;;;3.80;;
16073;SDS011;8141;52.664;5.074;2023-07-16T00:45:33;5.30;;;2.83;;
16073;SDS011;8141;52.664;5.074;2023-07-16T00:47:59;4.40;;;2.60;;
16073;SDS011;8141;52.664;5.074;2023-07-16T00:50:25;4.70;;;2.30;;
16073;SDS011;8141;52.664;5.074;2023-07-16T00:52:51;6.83;;;2.33;;
16073;SDS011;8141;52.664;5.074;2023-07-16T00:55:17;3.53;;;2.37;;
16073;SDS011;8141;52.664;5.074;2023-07-16T00:57:42;3.40;;;2.00;;
16073;SDS011;8141;52.664;5.074;2023-07-16T01:00:10;3.80;;;1.90;;
16073;SDS011;8141;52.664;5.074;2023-07-16T01:02:36;4.10;;;2.20;;
16073;SDS011;8141;52.664;5.074;2023-07-16T01:05:02;3.03;;;1.80;;
16073;SDS011;8141;52.664;5.074;2023-07-16T01:07:29;5.27;;;2.27;;
16073;SDS011;8141;52.664;5.074;2023-07-16T01:09:56;4.80;;;2.30;;
16073;SDS011;8141;52.664;5.074;2023-07-16T01:12:24;4.73;;;2.27;;
16073;SDS011;8141;52.664;5.074;2023-07-16T01:14:52;3.40;;;2.03;;
16073;SDS011;8141;52.664;5.074;2023-07-16T01:17:18;2.53;;;2.07;;
16073;SDS011;8141;52.664;5.074;2023-07-16T01:19:44;4.63;;;2.13;;
16073;SDS011;8141;52.664;5.074;2023-07-16T01:27:50;4.37;;;2.00;;
16073;SDS011;8141;52.664;5.074;2023-07-16T01:30:50;3.53;;;2.20;;
16073;SDS011;8141;52.664;5.074;2023-07-16T01:33:17;2.83;;;2.10;;
16073;SDS011;8141;52.664;5.074;2023-07-16T01:35:45;2.67;;;1.80;;
16073;SDS011;8141;52.664;5.074;2023-07-16T01:38:13;3.17;;;1.70;;
16073;SDS011;8141;52.664;5.074;2023-07-16T01:40:41;2.17;;;1.47;;
16073;SDS011;8141;52.664;5.074;2023-07-16T01:43:06;2.97;;;1.70;;
16073;SDS011;8141;52.664;5.074;2023-07-16T01:45:32;3.23;;;1.97;;
16073;SDS011;8141;52.664;5.074;2023-07-16T01:50:54;3.10;;;1.83;;
16073;SDS011;8141;52.664;5.074;2023-07-16T01:53:20;2.20;;;2.00;;
16073;SDS011;8141;52.664;5.074;2023-07-16T01:55:46;3.00;;;2.23;;
16073;SDS011;8141;52.664;5.074;2023-07-16T01:58:12;1.83;;;1.60;;
16073;SDS011;8141;52.664;5.074;2023-07-16T02:00:38;2.83;;;1.53;;
16073;SDS011;8141;52.664;5.074;2023-07-16T02:03:04;3.37;;;1.53;;
16073;SDS011;8141;52.664;5.074;2023-07-16T02:05:30;1.93;;;1.53;;
16073;SDS011;8141;52.664;5.074;2023-07-16T02:07:55;3.03;;;1.90;;
16073;SDS011;8141;52.664;5.074;2023-07-16T02:10:21;2.40;;;1.70;;
16073;SDS011;8141;52.664;5.074;2023-07-16T02:12:47;2.53;;;1.83;;
16073;SDS011;8141;52.664;5.074;2023-07-16T02:15:13;2.37;;;1.67;;
16073;SDS011;8141;52.664;5.074;2023-07-16T02:17:39;1.83;;;1.40;;
16073;SDS011;8141;52.664;5.074;2023-07-16T02:20:05;2.27;;;1.53;;
16073;SDS011;8141;52.664;5.074;2023-07-16T02:22:31;2.77;;;1.77;;
16073;SDS011;8141;52.664;5.074;2023-07-16T02:24:58;2.90;;;1.60;;
16073;SDS011;8141;52.664;5.074;2023-07-16T02:27:24;1.97;;;1.40;;
16073;SDS011;8141;52.664;5.074;2023-07-16T02:29:50;3.40;;;1.60;;
16073;SDS011;8141;52.664;5.074;2023-07-16T02:32:15;3.80;;;1.70;;
16073;SDS011;8141;52.664;5.074;2023-07-16T02:34:41;3.63;;;1.63;;
16073;SDS011;8141;52.664;5.074;2023-07-16T02:37:07;2.67;;;1.73;;
16073;SDS011;8141;52.664;5.074;2023-07-16T02:39:33;2.00;;;1.57;;
16073;SDS011;8141;52.664;5.074;2023-07-16T02:41:59;2.43;;;1.50;;
16073;SDS011;8141;52.664;5.074;2023-07-16T02:44:24;1.63;;;1.37;;
16073;SDS011;8141;52.664;5.074;2023-07-16T02:46:50;2.60;;;1.53;;
16073;SDS011;8141;52.664;5.074;2023-07-16T02:49:16;2.37;;;1.50;;
16073;SDS011;8141;52.664;5.074;2023-07-16T02:51:42;1.53;;;1.30;;
16073;SDS011;8141;52.664;5.074;2023-07-16T02:54:07;1.67;;;1.33;;
16073;SDS011;8141;52.664;5.074;2023-07-16T02:56:33;2.70;;;1.53;;
16073;SDS011;8141;52.664;5.074;2023-07-16T02:58:59;2.47;;;1.73;;
16073;SDS011;8141;52.664;5.074;2023-07-16T03:01:25;2.57;;;1.60;;
16073;SDS011;8141;52.664;5.074;2023-07-16T03:03:51;3.10;;;1.40;;
16073;SDS011;8141;52.664;5.074;2023-07-16T03:06:16;1.53;;;1.40;;
16073;SDS011;8141;52.664;5.074;2023-07-16T03:08:42;2.80;;;1.63;;
16073;SDS011;8141;52.664;5.074;2023-07-16T03:11:10;1.67;;;1.30;;
16073;SDS011;8141;52.664;5.074;2023-07-16T03:13:36;2.80;;;1.23;;
16073;SDS011;8141;52.664;5.074;2023-07-16T03:16:02;1.83;;;1.20;;
16073;SDS011;8141;52.664;5.074;2023-07-16T03:18:28;2.50;;;1.43;;
16073;SDS011;8141;52.664;5.074;2023-07-16T03:20:55;2.30;;;1.33;;
16073;SDS011;8141;52.664;5.074;2023-07-16T03:23:24;2.17;;;1.60;;
16073;SDS011;8141;52.664;5.074;2023-07-16T03:25:51;1.50;;;1.20;;
16073;SDS011;8141;52.664;5.074;2023-07-16T03:28:17;1.80;;;1.20;;
16073;SDS011;8141;52.664;5.074;2023-07-16T03:30:49;2.20;;;1.50;;
16073;SDS011;8141;52.664;5.074;2023-07-16T03:33:16;1.53;;;1.37;;
16073;SDS011;8141;52.664;5.074;2023-07-16T03:35:43;2.30;;;1.60;;
16073;SDS011;8141;52.664;5.074;2023-07-16T03:38:10;1.30;;;1.20;;
16073;SDS011;8141;52.664;5.074;2023-07-16T03:40:36;2.20;;;1.40;;
16073;SDS011;8141;52.664;5.074;2023-07-16T03:43:02;1.80;;;1.50;;
16073;SDS011;8141;52.664;5.074;2023-07-16T03:45:27;1.30;;;1.20;;
16073;SDS011;8141;52.664;5.074;2023-07-16T03:47:53;2.27;;;1.50;;
16073;SDS011;8141;52.664;5.074;2023-07-16T03:50:19;1.90;;;1.47;;
16073;SDS011;8141;52.664;5.074;2023-07-16T03:52:45;1.90;;;1.63;;
16073;SDS011;8141;52.664;5.074;2023-07-16T03:55:12;2.03;;;1.27;;
16073;SDS011;8141;52.664;5.074;2023-07-16T03:57:37;2.10;;;1.30;;
16073;SDS011;8141;52.664;5.074;2023-07-16T04:00:03;1.97;;;1.30;;
16073;SDS011;8141;52.664;5.074;2023-07-16T04:02:35;2.07;;;1.30;;
16073;SDS011;8141;52.664;5.074;2023-07-16T04:05:01;1.70;;;1.10;;
16073;SDS011;8141;52.664;5.074;2023-07-16T04:07:27;1.80;;;1.30;;
16073;SDS011;8141;52.664;5.074;2023-07-16T04:09:53;1.60;;;1.30;;
16073;SDS011;8141;52.664;5.074;2023-07-16T04:12:19;1.67;;;1.20;;
16073;SDS011;8141;52.664;5.074;2023-07-16T04:14:45;1.10;;;1.00;;
16073;SDS011;8141;52.664;5.074;2023-07-16T04:17:12;1.30;;;1.00;;
16073;SDS011;8141;52.664;5.074;2023-07-16T04:19:38;2.83;;;1.30;;
16073;SDS011;8141;52.664;5.074;2023-07-16T04:22:04;1.63;;;1.20;;
16073;SDS011;8141;52.664;5.074;2023-07-16T04:24:30;1.87;;;1.20;;
16073;SDS011;8141;52.664;5.074;2023-07-16T04:26:58;1.20;;;1.10;;
16073;SDS011;8141;52.664;5.074;2023-07-16T04:29:24;1.30;;;1.20;;
16073;SDS011;8141;52.664;5.074;2023-07-16T04:31:50;1.47;;;1.30;;
16073;SDS011;8141;52.664;5.074;2023-07-16T04:34:15;2.73;;;1.20;;
16073;SDS011;8141;52.664;5.074;2023-07-16T04:36:42;1.63;;;1.30;;
16073;SDS011;8141;52.664;5.074;2023-07-16T04:39:08;1.57;;;1.37;;
16073;SDS011;8141;52.664;5.074;2023-07-16T04:41:34;2.27;;;1.17;;
16073;SDS011;8141;52.664;5.074;2023-07-16T04:44:00;1.37;;;1.23;;
16073;SDS011;8141;52.664;5.074;2023-07-16T04:46:26;1.73;;;1.20;;
16073;SDS011;8141;52.664;5.074;2023-07-16T04:48:51;1.53;;;1.40;;
16073;SDS011;8141;52.664;5.074;2023-07-16T04:51:18;1.87;;;1.60;;
16073;SDS011;8141;52.664;5.074;2023-07-16T04:53:44;1.40;;;1.10;;
16073;SDS011;8141;52.664;5.074;2023-07-16T04:56:12;1.67;;;1.30;;
16073;SDS011;8141;52.664;5.074;2023-07-16T04:58:39;1.97;;;1.10;;
16073;SDS011;8141;52.664;5.074;2023-07-16T05:01:04;1.73;;;1.30;;
16073;SDS011;8141;52.664;5.074;2023-07-16T05:03:30;1.13;;;0.90;;
16073;SDS011;8141;52.664;5.074;2023-07-16T05:05:56;1.87;;;1.27;;
16073;SDS011;8141;52.664;5.074;2023-07-16T05:08:22;1.97;;;1.50;;
16073;SDS011;8141;52.664;5.074;2023-07-16T05:10:47;2.07;;;1.20;;
16073;SDS011;8141;52.664;5.074;2023-07-16T05:13:13;0.80;;;0.80;;
16073;SDS011;8141;52.664;5.074;2023-07-16T05:15:40;1.30;;;1.10;;
16073;SDS011;8141;52.664;5.074;2023-07-16T05:18:08;1.57;;;1.40;;
16073;SDS011;8141;52.664;5.074;2023-07-16T05:20:34;1.30;;;1.20;;
16073;SDS011;8141;52.664;5.074;2023-07-16T05:23:00;1.10;;;1.00;;
16073;SDS011;8141;52.664;5.074;2023-07-16T05:25:25;1.60;;;1.00;;
16073;SDS011;8141;52.664;5.074;2023-07-16T05:27:51;1.47;;;1.20;;
16073;SDS011;8141;52.664;5.074;2023-07-16T05:30:17;1.63;;;1.17;;
16073;SDS011;8141;52.664;5.074;2023-07-16T05:32:43;2.20;;;1.40;;
16073;SDS011;8141;52.664;5.074;2023-07-16T05:35:08;1.50;;;1.30;;
16073;SDS011;8141;52.664;5.074;2023-07-16T05:37:34;2.30;;;1.30;;
16073;SDS011;8141;52.664;5.074;2023-07-16T05:40:00;1.30;;;1.20;;
16073;SDS011;8141;52.664;5.074;2023-07-16T05:42:26;1.77;;;1.27;;
16073;SDS011;8141;52.664;5.074;2023-07-16T05:44:51;1.20;;;1.10;;
16073;SDS011;8141;52.664;5.074;2023-07-16T05:47:17;1.20;;;1.10;;
16073;SDS011;8141;52.664;5.074;2023-07-16T05:49:43;1.53;;;1.20;;
16073;SDS011;8141;52.664;5.074;2023-07-16T05:52:09;1.77;;;1.40;;
16073;SDS011;8141;52.664;5.074;2023-07-16T05:54:35;1.13;;;1.00;;
16073;SDS011;8141;52.664;5.074;2023-07-16T05:57:01;1.20;;;1.10;;
16073;SDS011;8141;52.664;5.074;2023-07-16T05:59:26;1.23;;;1.10;;
16073;SDS011;8141;52.664;5.074;2023-07-16T06:01:52;1.20;;;1.10;;
16073;SDS011;8141;52.664;5.074;2023-07-16T06:04:18;1.13;;;1.00;;
16073;SDS011;8141;52.664;5.074;2023-07-16T06:06:43;1.47;;;1.00;;
16073;SDS011;8141;52.664;5.074;2023-07-16T06:09:09;1.10;;;1.00;;
16073;SDS011;8141;52.664;5.074;2023-07-16T06:11:35;1.50;;;1.37;;
16073;SDS011;8141;52.664;5.074;2023-07-16T06:14:00;1.07;;;1.07;;
16073;SDS011;8141;52.664;5.074;2023-07-16T06:16:26;1.20;;;1.10;;
16073;SDS011;8141;52.664;5.074;2023-07-16T06:18:52;1.33;;;1.10;;
16073;SDS011;8141;52.664;5.074;2023-07-16T06:21:18;1.07;;;0.97;;
16073;SDS011;8141;52.664;5.074;2023-07-16T06:23:43;1.60;;;1.20;;
16073;SDS011;8141;52.664;5.074;2023-07-16T06:26:09;1.00;;;0.87;;
16073;SDS011;8141;52.664;5.074;2023-07-16T06:28:35;1.70;;;1.30;;
16073;SDS011;8141;52.664;5.074;2023-07-16T06:31:00;1.30;;;1.20;;
16073;SDS011;8141;52.664;5.074;2023-07-16T06:33:26;1.90;;;1.20;;
16073;SDS011;8141;52.664;5.074;2023-07-16T06:35:53;1.10;;;1.00;;
16073;SDS011;8141;52.664;5.074;2023-07-16T06:38:19;1.23;;;1.13;;
16073;SDS011;8141;52.664;5.074;2023-07-16T06:40:48;1.53;;;1.00;;
16073;SDS011;8141;52.664;5.074;2023-07-16T06:43:15;1.27;;;1.03;;
16073;SDS011;8141;52.664;5.074;2023-07-16T06:45:41;1.30;;;1.03;;
16073;SDS011;8141;52.664;5.074;2023-07-16T06:48:08;1.40;;;1.03;;
16073;SDS011;8141;52.664;5.074;2023-07-16T06:50:34;1.33;;;1.10;;
16073;SDS011;8141;52.664;5.074;2023-07-16T06:52:59;1.50;;;1.37;;
16073;SDS011;8141;52.664;5.074;2023-07-16T06:55:25;1.57;;;1.30;;
16073;SDS011;8141;52.664;5.074;2023-07-16T06:57:51;1.30;;;1.20;;
16073;SDS011;8141;52.664;5.074;2023-07-16T07:00:17;1.10;;;0.93;;
16073;SDS011;8141;52.664;5.074;2023-07-16T07:02:43;1.40;;;1.27;;
16073;SDS011;8141;52.664;5.074;2023-07-16T07:05:09;1.40;;;1.10;;
16073;SDS011;8141;52.664;5.074;2023-07-16T07:07:35;1.53;;;1.13;;
16073;SDS011;8141;52.664;5.074;2023-07-16T07:10:00;1.50;;;1.10;;
16073;SDS011;8141;52.664;5.074;2023-07-16T07:12:26;1.10;;;1.00;;
16073;SDS011;8141;52.664;5.074;2023-07-16T07:14:52;4.07;;;1.53;;
16073;SDS011;8141;52.664;5.074;2023-07-16T07:17:18;5.40;;;2.60;;
16073;SDS011;8141;52.664;5.074;2023-07-16T07:19:44;6.47;;;3.10;;
16073;SDS011;8141;52.664;5.074;2023-07-16T07:22:10;4.47;;;2.57;;
16073;SDS011;8141;52.664;5.074;2023-07-16T07:24:35;7.43;;;3.20;;
16073;SDS011;8141;52.664;5.074;2023-07-16T07:27:01;4.27;;;2.90;;
16073;SDS011;8141;52.664;5.074;2023-07-16T07:29:27;6.63;;;2.90;;
16073;SDS011;8141;52.664;5.074;2023-07-16T07:31:53;7.03;;;3.10;;
16073;SDS011;8141;52.664;5.074;2023-07-16T07:34:19;7.40;;;3.13;;
16073;SDS011;8141;52.664;5.074;2023-07-16T07:36:45;4.53;;;3.10;;
16073;SDS011;8141;52.664;5.074;2023-07-16T07:39:10;4.33;;;2.77;;
16073;SDS011;8141;52.664;5.074;2023-07-16T07:41:38;5.30;;;3.20;;
16073;SDS011;8141;52.664;5.074;2023-07-16T07:44:04;8.93;;;3.70;;
16073;SDS011;8141;52.664;5.074;2023-07-16T07:46:30;9.77;;;3.17;;
16073;SDS011;8141;52.664;5.074;2023-07-16T07:48:55;7.43;;;2.90;;
16073;SDS011;8141;52.664;5.074;2023-07-16T07:51:21;8.90;;;3.17;;
16073;SDS011;8141;52.664;5.074;2023-07-16T07:53:47;6.93;;;3.43;;
16073;SDS011;8141;52.664;5.074;2023-07-16T07:56:13;8.33;;;3.27;;
16073;SDS011;8141;52.664;5.074;2023-07-16T07:58:39;6.60;;;3.00;;
16073;SDS011;8141;52.664;5.074;2023-07-16T08:01:05;7.53;;;2.90;;
16073;SDS011;8141;52.664;5.074;2023-07-16T08:03:32;7.60;;;2.87;;
16073;SDS011;8141;52.664;5.074;2023-07-16T08:05:59;7.03;;;2.93;;
16073;SDS011;8141;52.664;5.074;2023-07-16T08:08:25;7.07;;;3.27;;
16073;SDS011;8141;52.664;5.074;2023-07-16T08:10:51;6.33;;;3.50;;
16073;SDS011;8141;52.664;5.074;2023-07-16T08:13:17;6.03;;;2.93;;
16073;SDS011;8141;52.664;5.074;2023-07-16T08:15:43;5.17;;;3.13;;
16073;SDS011;8141;52.664;5.074;2023-07-16T08:18:08;8.43;;;3.33;;
16073;SDS011;8141;52.664;5.074;2023-07-16T08:20:37;7.37;;;3.33;;
16073;SDS011;8141;52.664;5.074;2023-07-16T08:23:03;9.27;;;3.00;;
16073;SDS011;8141;52.664;5.074;2023-07-16T08:25:29;7.47;;;3.10;;
16073;SDS011;8141;52.664;5.074;2023-07-16T08:27:54;8.00;;;3.40;;
16073;SDS011;8141;52.664;5.074;2023-07-16T08:30:20;6.47;;;3.43;;
16073;SDS011;8141;52.664;5.074;2023-07-16T08:32:46;7.97;;;3.30;;
16073;SDS011;8141;52.664;5.074;2023-07-16T08:35:12;12.53;;;3.83;;
16073;SDS011;8141;52.664;5.074;2023-07-16T08:37:41;7.53;;;3.43;;
16073;SDS011;8141;52.664;5.074;2023-07-16T08:40:08;7.90;;;3.47;;
16073;SDS011;8141;52.664;5.074;2023-07-16T08:42:39;8.23;;;3.63;;
16073;SDS011;8141;52.664;5.074;2023-07-16T08:45:11;5.03;;;3.60;;
16073;SDS011;8141;52.664;5.074;2023-07-16T08:47:39;8.40;;;4.03;;
16073;SDS011;8141;52.664;5.074;2023-07-16T08:50:05;7.13;;;4.03;;
16073;SDS011;8141;52.664;5.074;2023-07-16T08:52:31;6.47;;;3.57;;
16073;SDS011;8141;52.664;5.074;2023-07-16T08:54:57;9.03;;;3.93;;
16073;SDS011;8141;52.664;5.074;2023-07-16T08:57:23;9.67;;;3.70;;
16073;SDS011;8141;52.664;5.074;2023-07-16T08:59:49;7.30;;;3.93;;
16073;SDS011;8141;52.664;5.074;2023-07-16T09:02:19;9.37;;;3.70;;
16073;SDS011;8141;52.664;5.074;2023-07-16T09:04:46;5.60;;;3.23;;
16073;SDS011;8141;52.664;5.074;2023-07-16T09:07:13;6.07;;;3.80;;
16073;SDS011;8141;52.664;5.074;2023-07-16T09:09:39;7.33;;;4.13;;
16073;SDS011;8141;52.664;5.074;2023-07-16T09:12:05;8.73;;;3.70;;
16073;SDS011;8141;52.664;5.074;2023-07-16T09:14:35;9.47;;;4.10;;
16073;SDS011;8141;52.664;5.074;2023-07-16T09:17:01;7.43;;;3.90;;
16073;SDS011;8141;52.664;5.074;2023-07-16T09:19:27;10.30;;;4.50;;
16073;SDS011;8141;52.664;5.074;2023-07-16T09:21:59;9.43;;;4.30;;
16073;SDS011;8141;52.664;5.074;2023-07-16T09:24:25;11.67;;;4.70;;
16073;SDS011;8141;52.664;5.074;2023-07-16T09:26:51;17.23;;;5.33;;
16073;SDS011;8141;52.664;5.074;2023-07-16T09:29:19;19.90;;;6.00;;
16073;SDS011;8141;52.664;5.074;2023-07-16T09:31:54;14.97;;;4.90;;
16073;SDS011;8141;52.664;5.074;2023-07-16T09:34:21;15.07;;;5.50;;
16073;SDS011;8141;52.664;5.074;2023-07-16T09:36:48;14.37;;;5.57;;
16073;SDS011;8141;52.664;5.074;2023-07-16T09:39:16;15.60;;;5.20;;
16073;SDS011;8141;52.664;5.074;2023-07-16T09:41:44;11.47;;;4.67;;
16073;SDS011;8141;52.664;5.074;2023-07-16T09:44:11;24.57;;;5.90;;
16073;SDS011;8141;52.664;5.074;2023-07-16T09:46:38;19.13;;;5.37;;
16073;SDS011;8141;52.664;5.074;2023-07-16T09:49:04;23.43;;;5.70;;
16073;SDS011;8141;52.664;5.074;2023-07-16T09:51:31;14.13;;;5.00;;
16073;SDS011;8141;52.664;5.074;2023-07-16T09:53:57;11.07;;;4.20;;
16073;SDS011;8141;52.664;5.074;2023-07-16T09:56:28;16.67;;;4.70;;
16073;SDS011;8141;52.664;5.074;2023-07-16T09:59:01;14.00;;;4.50;;
16073;SDS011;8141;52.664;5.074;2023-07-16T10:01:36;24.40;;;4.23;;
16073;SDS011;8141;52.664;5.074;2023-07-16T10:06:48;23.03;;;6.50;;
16073;SDS011;8141;52.664;5.074;2023-07-16T10:14:42;17.63;;;5.20;;
16073;SDS011;8141;52.664;5.074;2023-07-16T10:17:14;12.87;;;5.63;;
16073;SDS011;8141;52.664;5.074;2023-07-16T10:22:43;73.70;;;18.60;;
16073;SDS011;8141;52.664;5.074;2023-07-16T10:27:46;45.00;;;12.37;;
16073;SDS011;8141;52.664;5.074;2023-07-16T10:30:14;33.77;;;11.50;;
16073;SDS011;8141;52.664;5.074;2023-07-16T10:32:41;36.83;;;10.87;;
16073;SDS011;8141;52.664;5.074;2023-07-16T10:35:07;31.53;;;8.53;;
16073;SDS011;8141;52.664;5.074;2023-07-16T10:37:35;35.07;;;9.50;;
16073;SDS011;8141;52.664;5.074;2023-07-16T10:40:01;29.80;;;8.63;;
16073;SDS011;8141;52.664;5.074;2023-07-16T10:42:29;21.10;;;7.33;;
16073;SDS011;8141;52.664;5.074;2023-07-16T10:44:57;21.33;;;7.30;;
16073;SDS011;8141;52.664;5.074;2023-07-16T10:47:35;19.10;;;6.37;;
16073;SDS011;8141;52.664;5.074;2023-07-16T10:50:03;12.77;;;4.87;;
16073;SDS011;8141;52.664;5.074;2023-07-16T10:52:32;15.97;;;4.83;;
16073;SDS011;8141;52.664;5.074;2023-07-16T10:54:59;17.67;;;5.33;;
16073;SDS011;8141;52.664;5.074;2023-07-16T10:57:25;16.37;;;5.37;;
16073;SDS011;8141;52.664;5.074;2023-07-16T10:59:52;15.23;;;4.80;;
16073;SDS011;8141;52.664;5.074;2023-07-16T11:02:20;15.03;;;5.40;;
16073;SDS011;8141;52.664;5.074;2023-07-16T11:04:48;12.87;;;4.47;;
16073;SDS011;8141;52.664;5.074;2023-07-16T11:07:15;12.77;;;4.30;;
16073;SDS011;8141;52.664;5.074;2023-07-16T11:09:41;14.70;;;5.27;;
16073;SDS011;8141;52.664;5.074;2023-07-16T11:12:11;12.93;;;4.67;;
16073;SDS011;8141;52.664;5.074;2023-07-16T11:14:42;13.37;;;4.37;;
16073;SDS011;8141;52.664;5.074;2023-07-16T11:17:13;12.13;;;4.30;;
16073;SDS011;8141;52.664;5.074;2023-07-16T11:19:40;9.90;;;3.87;;
16073;SDS011;8141;52.664;5.074;2023-07-16T11:22:10;12.27;;;4.73;;
16073;SDS011;8141;52.664;5.074;2023-07-16T11:24:45;9.83;;;4.00;;
16073;SDS011;8141;52.664;5.074;2023-07-16T11:29:49;11.77;;;3.90;;
16073;SDS011;8141;52.664;5.074;2023-07-16T11:34:59;10.60;;;3.77;;
16073;SDS011;8141;52.664;5.074;2023-07-16T11:37:28;14.37;;;4.70;;
16073;SDS011;8141;52.664;5.074;2023-07-16T11:39:58;11.57;;;3.83;;
16073;SDS011;8141;52.664;5.074;2023-07-16T11:42:29;12.67;;;4.17;;
16073;SDS011;8141;52.664;5.074;2023-07-16T11:44:56;11.77;;;4.23;;
16073;SDS011;8141;52.664;5.074;2023-07-16T11:47:23;14.20;;;4.50;;
16073;SDS011;8141;52.664;5.074;2023-07-16T11:49:49;12.73;;;3.80;;
16073;SDS011;8141;52.664;5.074;2023-07-16T11:52:19;10.27;;;3.60;;
16073;SDS011;8141;52.664;5.074;2023-07-16T11:54:56;11.83;;;4.90;;
16073;SDS011;8141;52.664;5.074;2023-07-16T11:57:24;12.03;;;3.50;;
16073;SDS011;8141;52.664;5.074;2023-07-16T11:59:51;12.07;;;3.77;;
16073;SDS011;8141;52.664;5.074;2023-07-16T12:02:17;10.70;;;3.43;;
16073;SDS011;8141;52.664;5.074;2023-07-16T12:04:43;10.17;;;3.57;;
16073;SDS011;8141;52.664;5.074;2023-07-16T12:07:09;10.63;;;3.20;;
16073;SDS011;8141;52.664;5.074;2023-07-16T12:09:35;10.10;;;3.73;;
16073;SDS011;8141;52.664;5.074;2023-07-16T12:12:01;12.00;;;3.13;;
16073;SDS011;8141;52.664;5.074;2023-07-16T12:14:27;10.83;;;3.37;;
16073;SDS011;8141;52.664;5.074;2023-07-16T12:16:53;10.87;;;3.50;;
16073;SDS011;8141;52.664;5.074;2023-07-16T12:19:20;7.27;;;3.10;;
16073;SDS011;8141;52.664;5.074;2023-07-16T12:21:46;11.23;;;3.20;;
16073;SDS011;8141;52.664;5.074;2023-07-16T12:24:11;10.90;;;4.53;;
16073;SDS011;8141;52.664;5.074;2023-07-16T12:26:37;10.43;;;3.33;;
16073;SDS011;8141;52.664;5.074;2023-07-16T12:29:03;8.50;;;2.93;;
16073;SDS011;8141;52.664;5.074;2023-07-16T12:31:29;9.43;;;3.23;;
16073;SDS011;8141;52.664;5.074;2023-07-16T12:33:56;9.40;;;3.10;;
16073;SDS011;8141;52.664;5.074;2023-07-16T12:36:23;9.57;;;3.10;;
16073;SDS011;8141;52.664;5.074;2023-07-16T12:38:49;10.97;;;3.37;;
16073;SDS011;8141;52.664;5.074;2023-07-16T12:41:14;8.40;;;2.70;;
16073;SDS011;8141;52.664;5.074;2023-07-16T12:43:41;10.77;;;3.03;;
16073;SDS011;8141;52.664;5.074;2023-07-16T12:46:07;11.20;;;3.10;;
16073;SDS011;8141;52.664;5.074;2023-07-16T12:48:34;10.37;;;2.63;;
16073;SDS011;8141;52.664;5.074;2023-07-16T12:50:59;10.93;;;2.80;;
16073;SDS011;8141;52.664;5.074;2023-07-16T12:53:25;12.13;;;3.07;;
16073;SDS011;8141;52.664;5.074;2023-07-16T12:55:51;11.53;;;3.37;;
16073;SDS011;8141;52.664;5.074;2023-07-16T12:58:18;5.57;;;2.43;;
16073;SDS011;8141;52.664;5.074;2023-07-16T13:00:44;8.43;;;2.83;;
16073;SDS011;8141;52.664;5.074;2023-07-16T13:03:09;9.13;;;2.33;;
16073;SDS011;8141;52.664;5.074;2023-07-16T13:05:40;9.83;;;2.80;;
16073;SDS011;8141;52.664;5.074;2023-07-16T13:08:06;8.10;;;2.33;;
16073;SDS011;8141;52.664;5.074;2023-07-16T13:10:32;7.53;;;2.80;;
16073;SDS011;8141;52.664;5.074;2023-07-16T13:12:57;7.27;;;2.50;;
16073;SDS011;8141;52.664;5.074;2023-07-16T13:15:23;8.07;;;2.63;;
16073;SDS011;8141;52.664;5.074;2023-07-16T13:17:49;9.20;;;3.03;;
16073;SDS011;8141;52.664;5.074;2023-07-16T13:20:15;10.80;;;2.23;;
16073;SDS011;8141;52.664;5.074;2023-07-16T13:22:43;10.23;;;2.57;;
16073;SDS011;8141;52.664;5.074;2023-07-16T13:25:09;8.67;;;2.93;;
16073;SDS011;8141;52.664;5.074;2023-07-16T13:27:34;9.20;;;2.03;;
16073;SDS011;8141;52.664;5.074;2023-07-16T13:30:00;8.63;;;2.37;;
16073;SDS011;8141;52.664;5.074;2023-07-16T13:32:26;9.20;;;2.80;;
16073;SDS011;8141;52.664;5.074;2023-07-16T13:34:53;9.17;;;2.40;;
16073;SDS011;8141;52.664;5.074;2023-07-16T13:37:19;7.63;;;2.50;;
16073;SDS011;8141;52.664;5.074;2023-07-16T13:39:44;6.27;;;1.63;;
16073;SDS011;8141;52.664;5.074;2023-07-16T13:42:10;5.97;;;1.90;;
16073;SDS011;8141;52.664;5.074;2023-07-16T13:44:36;6.47;;;2.23;;
16073;SDS011;8141;52.664;5.074;2023-07-16T13:47:02;7.73;;;2.67;;
16073;SDS011;8141;52.664;5.074;2023-07-16T13:49:28;6.73;;;1.93;;
16073;SDS011;8141;52.664;5.074;2023-07-16T13:51:54;5.63;;;2.17;;
16073;SDS011;8141;52.664;5.074;2023-07-16T13:54:20;6.33;;;1.90;;
16073;SDS011;8141;52.664;5.074;2023-07-16T13:56:46;8.53;;;2.27;;
16073;SDS011;8141;52.664;5.074;2023-07-16T13:59:13;8.07;;;2.00;;
16073;SDS011;8141;52.664;5.074;2023-07-16T14:01:39;5.47;;;2.10;;
16073;SDS011;8141;52.664;5.074;2023-07-16T14:04:05;6.20;;;2.03;;
16073;SDS011;8141;52.664;5.074;2023-07-16T14:06:31;6.53;;;2.20;;
16073;SDS011;8141;52.664;5.074;2023-07-16T14:08:57;7.23;;;1.87;;
16073;SDS011;8141;52.664;5.074;2023-07-16T14:11:24;6.37;;;1.90;;
16073;SDS011;8141;52.664;5.074;2023-07-16T14:13:50;7.83;;;2.30;;
16073;SDS011;8141;52.664;5.074;2023-07-16T14:16:22;4.17;;;1.70;;
16073;SDS011;8141;52.664;5.074;2023-07-16T14:18:49;4.43;;;1.80;;
16073;SDS011;8141;52.664;5.074;2023-07-16T14:21:17;6.63;;;2.20;;
16073;SDS011;8141;52.664;5.074;2023-07-16T14:23:43;5.40;;;1.63;;
16073;SDS011;8141;52.664;5.074;2023-07-16T14:26:09;8.97;;;1.90;;
16073;SDS011;8141;52.664;5.074;2023-07-16T14:28:35;3.93;;;1.67;;
16073;SDS011;8141;52.664;5.074;2023-07-16T14:31:01;8.07;;;2.17;;
16073;SDS011;8141;52.664;5.074;2023-07-16T14:33:27;4.80;;;1.90;;
16073;SDS011;8141;52.664;5.074;2023-07-16T14:35:53;6.90;;;1.33;;
16073;SDS011;8141;52.664;5.074;2023-07-16T14:38:18;6.70;;;1.50;;
16073;SDS011;8141;52.664;5.074;2023-07-16T14:40:44;6.53;;;2.00;;
16073;SDS011;8141;52.664;5.074;2023-07-16T14:43:11;5.87;;;2.00;;
16073;SDS011;8141;52.664;5.074;2023-07-16T14:45:37;8.80;;;2.37;;
16073;SDS011;8141;52.664;5.074;2023-07-16T14:48:03;6.53;;;2.23;;
16073;SDS011;8141;52.664;5.074;2023-07-16T14:50:30;5.80;;;1.60;;
16073;SDS011;8141;52.664;5.074;2023-07-16T14:52:56;5.80;;;1.33;;
16073;SDS011;8141;52.664;5.074;2023-07-16T14:55:21;5.83;;;1.70;;
16073;SDS011;8141;52.664;5.074;2023-07-16T14:57:50;5.23;;;1.57;;
16073;SDS011;8141;52.664;5.074;2023-07-16T15:00:15;7.47;;;1.97;;
16073;SDS011;8141;52.664;5.074;2023-07-16T15:02:42;6.77;;;1.83;;
16073;SDS011;8141;52.664;5.074;2023-07-16T15:05:08;4.77;;;1.50;;
16073;SDS011;8141;52.664;5.074;2023-07-16T15:07:35;5.73;;;1.53;;
16073;SDS011;8141;52.664;5.074;2023-07-16T15:10:01;4.63;;;1.80;;
16073;SDS011;8141;52.664;5.074;2023-07-16T15:12:28;3.17;;;1.40;;
16073;SDS011;8141;52.664;5.074;2023-07-16T15:14:54;7.53;;;1.77;;
16073;SDS011;8141;52.664;5.074;2023-07-16T15:17:19;5.10;;;1.60;;
16073;SDS011;8141;52.664;5.074;2023-07-16T15:19:47;6.57;;;2.10;;
16073;SDS011;8141;52.664;5.074;2023-07-16T15:22:14;5.60;;;1.50;;